createdAt,value
2018-11-20T00:00:31.649Z,4.80
2018-11-20T00:04:41.315Z,4.80
2018-11-20T00:10:51.761Z,4.80
2018-11-20T00:15:00.686Z,4.80
2018-11-20T00:17:03.513Z,4.80
2018-11-20T00:23:14.204Z,4.80
2018-11-20T00:29:24.685Z,4.80
2018-11-20T00:33:30.616Z,4.80
2018-11-20T00:40:01.202Z,4.50
2018-11-20T00:44:07.765Z,4.50
2018-11-20T00:50:42.310Z,4.60
2018-11-20T00:56:52.982Z,4.60
2018-11-20T01:01:02.471Z,4.70
2018-11-20T01:03:05.126Z,4.70
2018-11-20T01:07:11.972Z,4.80
2018-11-20T01:13:22.513Z,4.80
2018-11-20T01:17:29.209Z,4.70
2018-11-20T01:21:35.640Z,4.70
2018-11-20T01:26:10.767Z,4.80
2018-11-20T01:32:21.663Z,4.80
2018-11-20T01:36:49.261Z,4.80
2018-11-20T01:38:52.043Z,4.80
2018-11-20T01:45:02.698Z,4.70
2018-11-20T01:51:15.505Z,4.80
2018-11-20T01:55:24.947Z,4.80
2018-11-20T01:59:58.759Z,4.70
2018-11-20T02:06:09.208Z,4.80
2018-11-20T02:10:18.724Z,4.90
2018-11-20T02:16:31.426Z,4.80
2018-11-20T02:18:37.241Z,4.70
2018-11-20T02:24:47.085Z,5.00
2018-11-20T02:30:57.534Z,4.70
2018-11-20T02:35:37.964Z,4.70
2018-11-20T02:41:50.983Z,4.70
2018-11-20T02:48:04.553Z,4.80
2018-11-20T02:54:19.657Z,4.70
2018-11-20T02:58:26.223Z,4.70
2018-11-20T03:00:28.896Z,4.70
2018-11-20T03:04:55.456Z,4.80
2018-11-20T03:11:08.419Z,4.80
2018-11-20T03:13:10.794Z,4.80
2018-11-20T03:19:24.748Z,4.80
2018-11-20T03:25:35.351Z,4.90
2018-11-20T03:27:41.065Z,4.80
2018-11-20T03:31:47.857Z,4.90
2018-11-20T03:33:50.515Z,4.90
2018-11-20T03:37:57.462Z,4.90
2018-11-20T03:40:00.060Z,4.90
2018-11-20T03:44:06.507Z,4.90
2018-11-20T03:50:20.746Z,4.90
2018-11-20T03:56:31.865Z,4.90
2018-11-20T04:02:45.235Z,4.90
2018-11-20T04:06:54.222Z,4.90
2018-11-20T04:13:04.041Z,5.00
2018-11-20T04:17:13.729Z,4.90
2018-11-20T04:23:23.859Z,4.90
2018-11-20T04:27:57.964Z,4.80
2018-11-20T04:30:02.749Z,4.90
2018-11-20T04:34:09.512Z,4.80
2018-11-20T04:38:19.369Z,4.90
2018-11-20T04:40:24.738Z,5.00
2018-11-20T04:44:31.063Z,4.90
2018-11-20T04:46:33.607Z,4.90
2018-11-20T04:50:42.588Z,4.80
2018-11-20T04:52:45.231Z,4.80
2018-11-20T04:57:15.655Z,4.90
2018-11-20T05:03:28.749Z,4.90
2018-11-20T05:07:35.370Z,4.90
2018-11-20T05:13:48.240Z,4.80
2018-11-20T05:17:54.353Z,4.70
2018-11-20T05:24:04.987Z,4.70
2018-11-20T05:30:34.799Z,4.80
2018-11-20T05:36:48.448Z,4.80
2018-11-20T05:38:51.253Z,4.80
2018-11-20T05:40:53.260Z,4.80
2018-11-20T05:45:35.937Z,4.80
2018-11-20T05:49:41.785Z,4.70
2018-11-20T05:51:47.732Z,4.80
2018-11-20T05:55:56.877Z,4.80
2018-11-20T06:02:10.120Z,4.70
2018-11-20T06:08:21.126Z,4.80
2018-11-20T06:12:27.186Z,4.80
2018-11-20T06:18:43.000Z,4.70
2018-11-20T06:24:52.740Z,4.60
2018-11-20T06:28:59.221Z,4.60
2018-11-20T06:35:09.777Z,4.50
2018-11-20T06:41:20.309Z,4.60
2018-11-20T06:45:27.765Z,4.50
2018-11-20T06:47:32.740Z,4.50
2018-11-20T06:53:45.056Z,4.50
2018-11-20T06:55:50.791Z,4.40
2018-11-20T07:02:02.340Z,4.40
2018-11-20T07:08:15.712Z,4.20
2018-11-20T07:12:23.009Z,4.20
2018-11-20T07:18:32.770Z,4.20
2018-11-20T07:22:39.398Z,4.10
2018-11-20T07:29:25.621Z,4.10
2018-11-20T07:35:36.302Z,4.20
2018-11-20T07:37:41.700Z,4.20
2018-11-20T07:41:48.444Z,4.10
2018-11-20T07:46:18.567Z,4.00
2018-11-20T07:48:21.257Z,4.00
2018-11-20T07:52:54.874Z,4.10
2018-11-20T07:59:08.366Z,4.10
2018-11-20T08:03:14.880Z,4.10
2018-11-20T08:09:28.235Z,4.00
2018-11-20T08:11:36.081Z,4.10
2018-11-20T08:14:03.291Z,4.10
2018-11-20T08:18:33.769Z,4.10
2018-11-20T08:20:35.968Z,4.10
2018-11-20T08:24:45.188Z,4.10
2018-11-20T08:28:52.019Z,4.10
2018-11-20T08:35:01.894Z,4.20
2018-11-20T08:39:09.557Z,4.10
2018-11-20T08:41:12.103Z,4.20
2018-11-20T08:47:22.967Z,4.20
2018-11-20T08:53:32.943Z,4.30
2018-11-20T08:59:43.255Z,4.30
2018-11-20T09:01:45.954Z,4.20
2018-11-20T09:03:51.953Z,4.20
2018-11-20T09:05:54.786Z,4.30
2018-11-20T09:08:00.295Z,4.20
2018-11-20T09:10:02.707Z,4.20
2018-11-20T09:12:05.498Z,4.30
2018-11-20T09:16:14.488Z,4.20
2018-11-20T09:18:17.283Z,4.20
2018-11-20T09:24:27.478Z,4.20
2018-11-20T09:26:33.404Z,4.30
2018-11-20T09:32:44.015Z,4.20
2018-11-20T09:36:53.053Z,4.30
2018-11-20T09:41:02.864Z,4.30
2018-11-20T09:45:12.020Z,4.30
2018-11-20T09:51:22.333Z,4.40
2018-11-20T09:53:25.262Z,4.40
2018-11-20T10:00:10.768Z,4.40
2018-11-20T10:04:19.678Z,4.40
2018-11-20T10:10:32.775Z,4.40
2018-11-20T10:14:42.545Z,4.40
2018-11-20T10:16:45.138Z,4.50
2018-11-20T10:21:11.431Z,4.40
2018-11-20T10:27:22.637Z,4.30
2018-11-20T10:31:28.827Z,4.40
2018-11-20T10:37:39.649Z,4.30
2018-11-20T10:43:49.735Z,4.30
2018-11-20T10:47:56.092Z,4.20
2018-11-20T10:49:58.322Z,4.20
2018-11-20T10:56:11.753Z,4.20
2018-11-20T10:58:14.584Z,4.10
2018-11-20T11:00:23.650Z,4.20
2018-11-20T11:04:24.075Z,4.20
2018-11-20T11:08:33.465Z,4.10
2018-11-20T11:10:35.948Z,4.10
2018-11-20T11:12:37.982Z,4.10
2018-11-20T11:18:48.607Z,4.20
2018-11-20T11:23:00.269Z,4.10
2018-11-20T11:29:08.761Z,4.20
2018-11-20T11:33:15.015Z,4.20
2018-11-20T11:39:24.955Z,4.10
2018-11-20T11:45:55.181Z,4.10
2018-11-20T11:50:04.189Z,4.10
2018-11-20T11:56:12.363Z,4.20
2018-11-20T11:58:32.762Z,4.10
2018-11-20T12:00:54.284Z,4.20
2018-11-20T12:03:25.399Z,4.20
2018-11-20T12:05:47.260Z,4.10
2018-11-20T12:08:10.215Z,4.10
2018-11-20T12:10:28.931Z,4.10
2018-11-20T12:12:50.909Z,4.10
2018-11-20T12:15:20.076Z,4.20
2018-11-20T12:17:43.072Z,4.10
2018-11-20T12:20:08.934Z,4.20
2018-11-20T12:22:23.560Z,4.20
2018-11-20T12:25:01.826Z,4.20
2018-11-20T12:27:34.692Z,4.20
2018-11-20T12:30:13.457Z,4.20
2018-11-20T12:32:34.153Z,4.20
2018-11-20T12:35:00.076Z,4.20
2018-11-20T12:37:40.698Z,4.20
2018-11-20T12:39:59.843Z,4.20
2018-11-20T12:42:19.596Z,4.20
2018-11-20T12:44:56.627Z,4.30
2018-11-20T12:47:19.180Z,4.30
2018-11-20T12:49:44.692Z,4.30
2018-11-20T12:52:19.913Z,4.20
2018-11-20T12:54:39.535Z,4.30
2018-11-20T12:57:01.162Z,4.30
2018-11-20T12:59:30.135Z,4.40
2018-11-20T13:01:54.728Z,4.40
2018-11-20T13:04:21.940Z,4.30
2018-11-20T13:06:43.333Z,4.40
2018-11-20T13:09:13.483Z,4.40
2018-11-20T13:11:36.428Z,4.30
2018-11-20T13:13:58.829Z,4.30
2018-11-20T13:16:17.808Z,4.40
2018-11-20T13:18:54.241Z,4.40
2018-11-20T13:21:18.744Z,4.40
2018-11-20T13:23:41.865Z,4.40
2018-11-20T13:26:03.710Z,4.40
2018-11-20T13:28:25.385Z,4.40
2018-11-20T13:30:47.007Z,4.40
2018-11-20T13:33:06.351Z,4.40
2018-11-20T13:35:32.321Z,4.40
2018-11-20T13:38:13.827Z,4.40
2018-11-20T13:41:21.927Z,4.40
2018-11-20T13:43:46.595Z,4.30
2018-11-20T13:46:08.359Z,4.30
2018-11-20T13:48:29.875Z,4.30
2018-11-20T13:50:44.607Z,4.40
2018-11-20T13:53:02.623Z,4.30
2018-11-20T13:55:19.650Z,4.30
2018-11-20T13:57:42.652Z,4.30
2018-11-20T14:00:20.647Z,4.30
2018-11-20T14:02:42.257Z,4.30
2018-11-20T14:05:03.870Z,4.30
2018-11-20T14:07:36.263Z,4.40
2018-11-20T14:10:08.249Z,4.30
2018-11-20T14:12:33.911Z,4.30
2018-11-20T14:14:47.720Z,4.30
2018-11-20T14:17:10.713Z,4.30
2018-11-20T14:19:36.457Z,4.30
2018-11-20T14:22:05.836Z,4.30
2018-11-20T14:24:47.324Z,4.30
2018-11-20T14:27:09.007Z,4.30
2018-11-20T14:29:34.627Z,4.20
2018-11-20T14:31:55.404Z,4.30
2018-11-20T14:34:21.127Z,4.20
2018-11-20T14:36:53.113Z,4.20
2018-11-20T14:39:13.460Z,4.20
2018-11-20T14:41:35.188Z,4.20
2018-11-20T14:44:13.281Z,4.20
2018-11-20T14:46:34.903Z,4.20
2018-11-20T14:48:57.072Z,4.20
2018-11-20T14:51:24.287Z,4.10
2018-11-20T14:53:56.879Z,4.20
2018-11-20T14:56:10.875Z,4.20
2018-11-20T14:58:42.491Z,4.20
2018-11-20T15:01:04.705Z,4.10
2018-11-20T15:03:42.373Z,4.10
2018-11-20T15:06:04.213Z,4.20
2018-11-20T15:08:39.411Z,4.20
2018-11-20T15:11:02.430Z,4.10
2018-11-20T15:13:24.216Z,4.20
2018-11-20T15:15:51.158Z,4.20
2018-11-20T15:18:12.919Z,4.20
2018-11-20T15:20:44.847Z,4.10
2018-11-20T15:23:12.364Z,4.10
2018-11-20T15:25:28.249Z,4.10
2018-11-20T15:28:06.304Z,4.10
2018-11-20T15:30:26.416Z,4.10
2018-11-20T15:32:48.148Z,4.10
2018-11-20T15:35:09.837Z,4.10
2018-11-20T15:37:35.900Z,4.10
2018-11-20T15:40:01.836Z,4.10
2018-11-20T15:42:23.805Z,4.10
2018-11-20T15:44:59.098Z,4.10
2018-11-20T15:47:20.671Z,4.10
2018-11-20T15:49:49.603Z,4.10
2018-11-20T15:52:11.395Z,4.10
2018-11-20T15:54:33.004Z,4.10
2018-11-20T15:56:52.469Z,4.10
2018-11-20T15:59:30.785Z,4.10
2018-11-20T16:01:50.269Z,4.00
2018-11-20T16:04:13.266Z,4.10
2018-11-20T16:06:39.081Z,4.10
2018-11-20T16:09:20.476Z,4.00
2018-11-20T16:12:01.459Z,4.10
2018-11-20T16:14:22.996Z,4.10
2018-11-20T16:16:44.874Z,4.10
2018-11-20T16:19:20.142Z,4.10
2018-11-20T16:21:45.657Z,4.10
2018-11-20T16:24:07.469Z,4.10
2018-11-20T16:26:33.465Z,4.00
2018-11-20T16:28:59.112Z,4.10
2018-11-20T16:31:17.330Z,4.10
2018-11-20T16:33:49.248Z,4.00
2018-11-20T16:36:05.244Z,4.00
2018-11-20T16:38:46.136Z,4.00
2018-11-20T16:41:06.753Z,4.00
2018-11-20T16:43:35.773Z,3.90
2018-11-20T16:46:07.781Z,3.90
2018-11-20T16:48:34.258Z,3.90
2018-11-20T16:51:02.977Z,4.00
2018-11-20T16:53:35.451Z,3.90
2018-11-20T16:55:50.899Z,3.80
2018-11-20T16:58:22.868Z,3.70
2018-11-20T17:00:45.962Z,3.60
2018-11-20T17:03:11.705Z,3.70
2018-11-20T17:05:32.646Z,3.60
2018-11-20T17:08:04.896Z,3.40
2018-11-20T17:10:33.844Z,3.40
2018-11-20T17:12:56.806Z,3.40
2018-11-20T17:15:19.942Z,3.20
2018-11-20T17:17:48.595Z,3.30
2018-11-20T17:20:10.222Z,3.20
2018-11-20T17:22:44.918Z,3.10
2018-11-20T17:25:06.852Z,3.10
2018-11-20T17:27:33.767Z,3.10
2018-11-20T17:29:55.518Z,2.90
2018-11-20T17:32:33.352Z,3.00
2018-11-20T17:34:56.841Z,3.00
2018-11-20T17:37:31.949Z,3.00
2018-11-20T17:39:53.642Z,3.00
2018-11-20T17:42:15.241Z,3.00
2018-11-20T17:44:38.221Z,3.00
2018-11-20T17:47:16.261Z,3.10
2018-11-20T17:49:51.158Z,3.00
2018-11-20T17:52:22.717Z,3.00
2018-11-20T17:54:51.526Z,2.90
2018-11-20T17:57:32.961Z,2.80
2018-11-20T17:59:54.575Z,2.90
2018-11-20T18:02:17.567Z,2.90
2018-11-20T18:04:44.428Z,2.80
2018-11-20T18:07:12.991Z,2.60
2018-11-20T18:09:34.739Z,2.60
2018-11-20T18:11:57.740Z,2.70
2018-11-20T18:14:26.977Z,2.80
2018-11-20T18:17:05.340Z,2.80
2018-11-20T18:19:37.248Z,2.70
2018-11-20T18:22:02.911Z,2.70
2018-11-20T18:24:23.195Z,2.70
2018-11-20T18:26:39.280Z,2.80
2018-11-20T18:28:54.494Z,2.80
2018-11-20T18:31:06.137Z,2.80
2018-11-20T18:33:27.905Z,2.80
2018-11-20T18:35:49.408Z,2.80
2018-11-20T18:38:09.058Z,2.80
2018-11-20T18:40:31.280Z,2.90
2018-11-20T18:43:00.008Z,2.80
2018-11-20T18:45:29.713Z,2.90
2018-11-20T18:48:07.713Z,2.80
2018-11-20T18:50:40.207Z,2.90
2018-11-20T18:53:08.612Z,2.80
2018-11-20T18:55:25.931Z,2.90
2018-11-20T18:57:41.124Z,2.80
2018-11-20T19:00:03.002Z,2.80
2018-11-20T19:02:26.022Z,2.80
2018-11-20T19:04:47.859Z,2.80
2018-11-20T19:07:09.556Z,2.80
2018-11-20T19:09:31.548Z,2.80
2018-11-20T19:11:53.414Z,2.80
2018-11-20T19:14:19.035Z,2.80
2018-11-20T19:16:42.054Z,2.80
2018-11-20T19:19:03.782Z,2.80
2018-11-20T19:21:32.500Z,2.90
2018-11-20T19:23:54.213Z,2.80
2018-11-20T19:26:15.582Z,2.70
2018-11-20T19:28:37.416Z,2.80
2018-11-20T19:31:12.646Z,2.80
2018-11-20T19:33:53.673Z,2.80
2018-11-20T19:36:15.187Z,2.80
2018-11-20T19:38:38.186Z,2.80
2018-11-20T19:41:07.289Z,2.80
2018-11-20T19:43:28.694Z,2.80
2018-11-20T19:46:07.402Z,2.80
2018-11-20T19:48:28.881Z,2.80
2018-11-20T19:50:57.905Z,2.80
2018-11-20T19:53:19.134Z,2.80
2018-11-20T19:55:40.820Z,2.80
2018-11-20T19:58:02.188Z,2.70
2018-11-20T20:00:26.919Z,2.70
2018-11-20T20:02:48.884Z,2.70
2018-11-20T20:05:14.998Z,2.80
2018-11-20T20:07:30.180Z,2.80
2018-11-20T20:09:52.062Z,2.90
2018-11-20T20:12:21.252Z,2.80
2018-11-20T20:14:42.984Z,2.80
2018-11-20T20:17:04.583Z,2.80
2018-11-20T20:19:30.434Z,2.80
2018-11-20T20:21:52.258Z,2.80
2018-11-20T20:24:33.310Z,2.90
2018-11-20T20:27:01.926Z,2.90
2018-11-20T20:29:34.080Z,2.80
2018-11-20T20:31:55.559Z,2.80
2018-11-20T20:34:17.009Z,2.80
2018-11-20T20:36:39.998Z,2.90
2018-11-20T20:39:02.974Z,2.80
2018-11-20T20:41:38.305Z,2.90
2018-11-20T20:44:00.655Z,2.80
2018-11-20T20:46:22.517Z,2.90
2018-11-20T20:48:44.183Z,2.90
2018-11-20T20:51:13.188Z,2.90
2018-11-20T20:53:34.960Z,2.90
2018-11-20T20:55:57.936Z,2.90
2018-11-20T20:58:25.418Z,2.90
2018-11-20T21:00:50.298Z,2.90
2018-11-20T21:03:12.777Z,2.90
2018-11-20T21:05:36.846Z,3.00
2018-11-20T21:08:15.200Z,3.00
2018-11-20T21:10:54.994Z,3.00
2018-11-20T21:13:27.240Z,3.00
2018-11-20T21:15:48.892Z,3.10
2018-11-20T21:18:25.051Z,3.00
2018-11-20T21:20:48.053Z,2.90
2018-11-20T21:23:08.802Z,2.90
2018-11-20T21:25:30.704Z,2.90
2018-11-20T21:27:42.744Z,2.80
2018-11-20T21:30:04.913Z,2.90
2018-11-20T21:32:22.469Z,3.00
2018-11-20T21:34:45.768Z,3.00
2018-11-20T21:37:20.673Z,3.00
2018-11-20T21:39:59.269Z,2.90
2018-11-20T21:42:40.931Z,3.00
2018-11-20T21:45:15.461Z,3.00
2018-11-20T21:47:32.391Z,3.00
2018-11-20T21:49:59.580Z,3.00
2018-11-20T21:52:21.426Z,3.00
2018-11-20T21:54:55.644Z,3.00
2018-11-20T21:57:18.217Z,3.00
2018-11-20T21:59:54.164Z,3.00
2018-11-20T22:02:29.177Z,2.90
2018-11-20T22:04:49.116Z,3.00
2018-11-20T22:07:10.835Z,3.00
2018-11-20T22:09:34.972Z,3.00
2018-11-20T22:12:06.646Z,2.90
2018-11-20T22:14:48.990Z,3.00
2018-11-20T22:17:10.818Z,3.00
2018-11-20T22:19:32.289Z,3.00
2018-11-20T22:22:02.800Z,2.90
2018-11-20T22:24:26.204Z,3.00
2018-11-20T22:27:03.752Z,3.00
2018-11-20T22:29:18.795Z,2.90
2018-11-20T22:31:50.566Z,3.00
2018-11-20T22:34:13.655Z,3.00
2018-11-20T22:36:43.029Z,3.00
2018-11-20T22:39:22.283Z,3.00
2018-11-20T22:41:45.046Z,2.90
2018-11-20T22:44:07.365Z,3.00
2018-11-20T22:46:45.589Z,3.00
2018-11-20T22:49:10.174Z,2.90
2018-11-20T22:51:32.602Z,2.90
2018-11-20T22:53:54.154Z,3.00
2018-11-20T22:56:16.012Z,3.10
2018-11-20T22:58:48.864Z,3.00
2018-11-20T23:01:21.048Z,3.00
2018-11-20T23:03:52.006Z,3.00
2018-11-20T23:06:13.161Z,3.00
2018-11-20T23:08:18.109Z,3.10
2018-11-20T23:10:25.438Z,3.00
2018-11-20T23:12:29.492Z,3.10
2018-11-20T23:14:34.624Z,3.00
2018-11-20T23:16:41.624Z,3.00
2018-11-20T23:18:46.318Z,2.90
2018-11-20T23:20:50.681Z,2.90
2018-11-20T23:22:56.765Z,3.00
2018-11-20T23:25:01.207Z,3.00
2018-11-20T23:27:06.149Z,2.90
2018-11-20T23:29:10.909Z,2.90
2018-11-20T23:31:17.814Z,2.90
2018-11-20T23:33:22.308Z,2.90
2018-11-20T23:35:26.922Z,2.90
2018-11-20T23:37:31.810Z,3.00
2018-11-20T23:39:35.887Z,3.00
2018-11-20T23:41:39.850Z,3.00
2018-11-20T23:43:53.133Z,2.90
2018-11-20T23:45:57.040Z,3.00
2018-11-20T23:48:02.530Z,3.00
2018-11-20T23:50:11.568Z,3.00
2018-11-20T23:52:16.504Z,3.00
2018-11-20T23:54:21.182Z,2.90
2018-11-20T23:56:25.209Z,3.00
2018-11-20T23:58:29.227Z,3.10
